createdAt,value
2017-10-23T00:00:13.078Z,64.69
2017-10-23T00:00:53.535Z,64.4
2017-10-23T00:01:33.984Z,64.59
2017-10-23T00:02:14.423Z,64.69
2017-10-23T00:02:54.872Z,64.5
2017-10-23T00:03:35.322Z,64.59
2017-10-23T00:04:15.767Z,64.79
2017-10-23T00:04:56.223Z,64.59
2017-10-23T00:05:36.658Z,64.69
2017-10-23T00:06:17.111Z,64.98
2017-10-23T00:06:57.550Z,64.98
2017-10-23T00:07:38.014Z,65.08
2017-10-23T00:08:18.483Z,64.98
2017-10-23T00:08:58.954Z,65.08
2017-10-23T00:09:39.403Z,64.98
2017-10-23T00:10:19.846Z,64.59
2017-10-23T00:11:00.278Z,64.89
2017-10-23T00:11:40.739Z,64.98
2017-10-23T00:12:21.202Z,65.08
2017-10-23T00:13:01.634Z,64.98
2017-10-23T00:13:42.073Z,64.98
2017-10-23T00:14:22.523Z,65.37
2017-10-23T00:15:02.976Z,65.08
2017-10-23T00:15:43.438Z,65.08
2017-10-23T00:16:23.891Z,65.08
2017-10-23T00:17:04.341Z,64.98
2017-10-23T00:17:44.791Z,64.69
2017-10-23T00:18:25.272Z,64.89
2017-10-23T00:19:05.698Z,65.08
2017-10-23T00:19:46.144Z,64.89
2017-10-23T00:20:26.599Z,65.08
2017-10-23T00:21:07.046Z,65.08
2017-10-23T00:21:47.504Z,65.08
2017-10-23T00:22:27.961Z,64.69
2017-10-23T00:23:08.394Z,65.17
2017-10-23T00:23:48.837Z,64.89
2017-10-23T00:24:29.282Z,65.17
2017-10-23T00:25:09.703Z,64.89
2017-10-23T00:25:50.154Z,65.17
2017-10-23T00:26:30.593Z,64.89
2017-10-23T00:27:11.042Z,64.69
2017-10-23T00:27:51.501Z,65.08
2017-10-23T00:28:31.958Z,64.98
2017-10-23T00:29:12.400Z,65.08
2017-10-23T00:29:52.857Z,65.08
2017-10-23T00:30:33.316Z,64.98
2017-10-23T00:31:13.743Z,64.79
2017-10-23T00:31:54.175Z,65.17
2017-10-23T00:32:34.610Z,65.17
2017-10-23T00:33:15.053Z,65.17
2017-10-23T00:33:55.509Z,65.17
2017-10-23T00:34:35.967Z,64.98
2017-10-23T00:35:16.408Z,64.89
2017-10-23T00:35:56.865Z,65.08
2017-10-23T00:36:37.321Z,65.17
2017-10-23T00:37:17.775Z,65.17
2017-10-23T00:37:58.235Z,65.27
2017-10-23T00:38:38.691Z,65.56
2017-10-23T00:39:19.148Z,65.08
2017-10-23T00:39:59.607Z,65.47
2017-10-23T00:40:40.041Z,65.08
2017-10-23T00:41:20.489Z,65.17
2017-10-23T00:42:00.935Z,64.98
2017-10-23T00:42:41.382Z,64.98
2017-10-23T00:43:21.850Z,65.17
2017-10-23T00:44:02.316Z,65.27
2017-10-23T00:44:42.752Z,65.08
2017-10-23T00:45:23.205Z,65.37
2017-10-23T00:46:03.660Z,65.27
2017-10-23T00:46:44.116Z,65.08
2017-10-23T00:47:24.569Z,65.37
2017-10-23T00:48:05.024Z,65.37
2017-10-23T00:48:45.483Z,65.27
2017-10-23T00:49:25.928Z,65.37
2017-10-23T00:50:06.366Z,65.14
2017-10-23T00:50:46.810Z,65.27
2017-10-23T00:51:27.257Z,64.98
2017-10-23T00:52:07.711Z,64.98
2017-10-23T00:52:48.169Z,65.27
2017-10-23T00:53:28.626Z,65.17
2017-10-23T00:54:09.074Z,64.69
2017-10-23T00:54:49.532Z,65.47
2017-10-23T00:55:29.984Z,64.89
2017-10-23T00:56:10.428Z,65.14
2017-10-23T00:56:50.878Z,65.33
2017-10-23T00:57:31.324Z,65.27
2017-10-23T00:58:11.780Z,65.47
2017-10-23T00:58:52.210Z,65.43
2017-10-23T00:59:32.661Z,65.17
2017-10-23T01:00:13.106Z,65.27
2017-10-23T01:00:53.560Z,65.27
2017-10-23T01:01:34.007Z,65.24
2017-10-23T01:02:14.459Z,65.14
2017-10-23T01:02:54.914Z,65.24
2017-10-23T01:03:35.359Z,65.24
2017-10-23T01:04:15.849Z,65.37
2017-10-23T01:04:56.298Z,65.24
2017-10-23T01:05:36.757Z,65.24
2017-10-23T01:06:17.195Z,65.24
2017-10-23T01:06:57.643Z,65.24
2017-10-23T01:07:38.092Z,65.14
2017-10-23T01:08:18.546Z,65.24
2017-10-23T01:08:58.997Z,65.33
2017-10-23T01:09:39.441Z,65.24
2017-10-23T01:10:19.886Z,65.24
2017-10-23T01:11:00.331Z,65.24
2017-10-23T01:11:40.783Z,65.24
2017-10-23T01:12:21.214Z,65.24
2017-10-23T01:13:01.653Z,65.43
2017-10-23T01:13:42.098Z,65.24
2017-10-23T01:14:22.561Z,65.14
2017-10-23T01:15:03.007Z,65.24
2017-10-23T01:15:43.456Z,65.63
2017-10-23T01:16:23.905Z,65.24
2017-10-23T01:17:04.361Z,65.53
2017-10-23T01:17:44.811Z,65.63
2017-10-23T01:18:25.274Z,65.53
2017-10-23T01:19:05.719Z,65.53
2017-10-23T01:19:46.171Z,65.63
2017-10-23T01:20:26.636Z,65.81
2017-10-23T01:21:07.087Z,65.63
2017-10-23T01:21:47.551Z,65.63
2017-10-23T01:22:28.006Z,65.81
2017-10-23T01:23:08.452Z,65.72
2017-10-23T01:23:48.907Z,65.24
2017-10-23T01:24:29.361Z,65.72
2017-10-23T01:25:09.816Z,65.43
2017-10-23T01:25:50.267Z,65.53
2017-10-23T01:26:30.715Z,65.63
2017-10-23T01:27:11.163Z,65.43
2017-10-23T01:27:51.633Z,65.24
2017-10-23T01:28:32.061Z,65.05
2017-10-23T01:29:12.501Z,65.24
2017-10-23T01:29:52.948Z,65.14
2017-10-23T01:30:33.400Z,65.14
2017-10-23T01:31:13.832Z,65.24
2017-10-23T01:31:54.281Z,65.24
2017-10-23T01:32:34.737Z,65.33
2017-10-23T01:33:15.185Z,65.14
2017-10-23T01:33:55.645Z,65.14
2017-10-23T01:34:36.080Z,65.33
2017-10-23T01:35:16.533Z,65.33
2017-10-23T01:35:56.981Z,65.27
2017-10-23T01:36:37.441Z,65.33
2017-10-23T01:37:17.903Z,65.33
2017-10-23T01:37:58.350Z,65.27
2017-10-23T01:38:38.796Z,65.24
2017-10-23T01:39:19.257Z,65.43
2017-10-23T01:39:59.699Z,65.14
2017-10-23T01:40:40.148Z,65.43
2017-10-23T01:41:20.598Z,65.33
2017-10-23T01:42:01.040Z,65.24
2017-10-23T01:42:41.501Z,65.47
2017-10-23T01:43:21.944Z,65.14
2017-10-23T01:44:02.393Z,65.33
2017-10-23T01:44:42.813Z,65.27
2017-10-23T01:45:23.254Z,65.47
2017-10-23T01:46:03.693Z,65.24
2017-10-23T01:46:44.142Z,65.33
2017-10-23T01:47:24.582Z,65.33
2017-10-23T01:48:05.031Z,65.33
2017-10-23T01:48:45.498Z,65.33
2017-10-23T01:49:25.940Z,65.14
2017-10-23T01:50:06.391Z,65.43
2017-10-23T01:50:46.832Z,65.24
2017-10-23T01:51:27.275Z,65.43
2017-10-23T01:52:07.719Z,65.24
2017-10-23T01:52:48.187Z,65.24
2017-10-23T01:53:28.650Z,65.33
2017-10-23T01:54:09.094Z,65.05
2017-10-23T01:54:49.557Z,65.14
2017-10-23T01:55:31.010Z,64.95
2017-10-23T01:56:11.477Z,65.14
2017-10-23T01:56:51.933Z,65.33
2017-10-23T01:57:32.387Z,65.33
2017-10-23T01:58:12.836Z,64.66
2017-10-23T01:58:53.290Z,65.63
2017-10-23T01:59:33.748Z,65.37
2017-10-23T02:00:14.202Z,64.95
2017-10-23T02:00:54.658Z,65.33
2017-10-23T02:01:35.100Z,65.43
2017-10-23T02:02:15.573Z,65.43
2017-10-23T02:02:56.040Z,65.33
2017-10-23T02:03:36.478Z,65.33
2017-10-23T02:04:16.920Z,65.24
2017-10-23T02:04:57.381Z,65.37
2017-10-23T02:05:37.843Z,65.33
2017-10-23T02:06:18.288Z,65.05
2017-10-23T02:06:58.755Z,65.05
2017-10-23T02:07:39.176Z,65.37
2017-10-23T02:08:19.629Z,64.66
2017-10-23T02:09:00.081Z,65.14
2017-10-23T02:09:40.537Z,65.53
2017-10-23T02:10:20.984Z,65.17
2017-10-23T02:11:01.448Z,64.98
2017-10-23T02:11:41.885Z,65.53
2017-10-23T02:12:22.336Z,65.43
2017-10-23T02:13:02.797Z,65.17
2017-10-23T02:13:43.236Z,65.17
2017-10-23T02:14:23.700Z,65.14
2017-10-23T02:15:04.151Z,65.14
2017-10-23T02:15:44.581Z,65.14
2017-10-23T02:16:25.037Z,65.27
2017-10-23T02:17:05.491Z,65.53
2017-10-23T02:17:45.968Z,65.14
2017-10-23T02:18:26.425Z,64.98
2017-10-23T02:19:06.880Z,64.95
2017-10-23T02:19:47.367Z,65.14
2017-10-23T02:20:27.827Z,64.95
2017-10-23T02:21:08.283Z,65.14
2017-10-23T02:21:48.753Z,65.43
2017-10-23T02:22:29.203Z,65.05
2017-10-23T02:23:09.652Z,64.95
2017-10-23T02:23:50.110Z,65.14
2017-10-23T02:24:30.554Z,65.43
2017-10-23T02:25:11.005Z,65.33
2017-10-23T02:25:51.457Z,65.14
2017-10-23T02:26:31.931Z,65.14
2017-10-23T02:27:12.391Z,65.05
2017-10-23T02:27:52.858Z,65.24
2017-10-23T02:28:33.300Z,65.05
2017-10-23T02:29:13.765Z,65.05
2017-10-23T02:29:54.215Z,65.14
2017-10-23T02:30:34.645Z,65.05
2017-10-23T02:31:15.113Z,65.33
2017-10-23T02:31:55.570Z,65.33
2017-10-23T02:32:36.035Z,65.05
2017-10-23T02:33:16.489Z,65.14
2017-10-23T02:33:56.940Z,65.05
2017-10-23T02:34:37.398Z,65.24
2017-10-23T02:35:17.848Z,65.14
2017-10-23T02:35:58.316Z,65.33
2017-10-23T02:36:38.773Z,65.14
2017-10-23T02:37:19.197Z,65.14
2017-10-23T02:37:59.640Z,65.24
2017-10-23T02:38:40.119Z,65.14
2017-10-23T02:39:20.540Z,65.14
2017-10-23T02:40:00.985Z,65.14
2017-10-23T02:40:41.435Z,65.24
2017-10-23T02:41:21.896Z,65.24
2017-10-23T02:42:02.346Z,65.24
2017-10-23T02:42:42.804Z,65.05
2017-10-23T02:43:23.255Z,65.05
2017-10-23T02:44:03.716Z,65.14
2017-10-23T02:44:44.168Z,65.14
2017-10-23T02:45:24.639Z,65.14
2017-10-23T02:46:05.087Z,65.14
2017-10-23T02:46:45.548Z,65.24
2017-10-23T02:47:25.994Z,65.14
2017-10-23T02:48:06.442Z,65.24
2017-10-23T02:48:46.904Z,65.24
2017-10-23T02:49:27.352Z,65.33
2017-10-23T02:50:07.804Z,65.24
2017-10-23T02:50:48.245Z,65.33
2017-10-23T02:51:28.713Z,65.05
2017-10-23T02:52:09.169Z,65.14
2017-10-23T02:52:49.601Z,65.14
2017-10-23T02:53:30.058Z,65.43
2017-10-23T02:54:10.501Z,65.24
2017-10-23T02:54:50.958Z,65.43
2017-10-23T02:55:31.403Z,65.43
2017-10-23T02:56:11.855Z,65.43
2017-10-23T02:56:52.305Z,64.76
2017-10-23T02:57:32.755Z,65.14
2017-10-23T02:58:13.204Z,65.24
2017-10-23T02:58:53.659Z,65.53
2017-10-23T02:59:34.111Z,65.14
2017-10-23T03:00:14.562Z,65.24
2017-10-23T03:00:55.019Z,64.86
2017-10-23T03:01:35.463Z,64.95
2017-10-23T03:02:15.938Z,64.76
2017-10-23T03:02:56.382Z,64.76
2017-10-23T03:03:36.825Z,64.86
2017-10-23T03:04:17.272Z,64.86
2017-10-23T03:04:57.706Z,64.86
2017-10-23T03:05:38.162Z,65.14
2017-10-23T03:06:18.589Z,65.24
2017-10-23T03:06:59.047Z,65.24
2017-10-23T03:07:39.497Z,64.66
2017-10-23T03:08:19.938Z,65.14
2017-10-23T03:09:00.395Z,64.76
2017-10-23T03:09:40.862Z,64.95
2017-10-23T03:10:21.318Z,64.86
2017-10-23T03:11:01.758Z,65.43
2017-10-23T03:11:42.215Z,65.14
2017-10-23T03:12:22.672Z,65.24
2017-10-23T03:13:03.136Z,65.14
2017-10-23T03:13:43.577Z,65.33
2017-10-23T03:14:24.050Z,65.24
2017-10-23T03:15:04.511Z,65.33
2017-10-23T03:15:44.974Z,65.33
2017-10-23T03:16:25.430Z,65.33
2017-10-23T03:17:05.888Z,65.14
2017-10-23T03:17:46.341Z,65.33
2017-10-23T03:18:26.771Z,65.24
2017-10-23T03:19:07.213Z,65.14
2017-10-23T03:19:47.659Z,65.14
2017-10-23T03:20:28.110Z,65.05
2017-10-23T03:21:08.581Z,65.05
2017-10-23T03:21:49.018Z,65.14
2017-10-23T03:22:29.466Z,65.05
2017-10-23T03:23:09.922Z,65.33
2017-10-23T03:23:50.370Z,65.33
2017-10-23T03:24:30.834Z,65.24
2017-10-23T03:25:11.292Z,64.95
2017-10-23T03:25:51.753Z,64.95
2017-10-23T03:26:32.197Z,65.43
2017-10-23T03:27:12.644Z,65.24
2017-10-23T03:27:53.112Z,65.14
2017-10-23T03:28:33.536Z,65.14
2017-10-23T03:29:14.011Z,65.43
2017-10-23T03:29:54.440Z,65.05
2017-10-23T03:30:34.892Z,64.95
2017-10-23T03:31:15.332Z,65.14
2017-10-23T03:31:55.781Z,65.14
2017-10-23T03:32:36.248Z,65.24
2017-10-23T03:33:16.706Z,65.14
2017-10-23T03:33:57.160Z,65.05
2017-10-23T03:34:37.613Z,65.14
2017-10-23T03:35:18.066Z,65.05
2017-10-23T03:35:58.509Z,65.05
2017-10-23T03:36:38.955Z,65.05
2017-10-23T03:37:19.410Z,65.33
2017-10-23T03:37:59.882Z,64.95
2017-10-23T03:38:40.323Z,65.14
2017-10-23T03:39:20.770Z,65.53
2017-10-23T03:40:01.223Z,64.95
2017-10-23T03:40:41.664Z,65.43
2017-10-23T03:41:22.120Z,65.14
2017-10-23T03:42:02.570Z,65.24
2017-10-23T03:42:43.045Z,65.43
2017-10-23T03:43:23.489Z,65.72
2017-10-23T03:44:03.942Z,65.63
2017-10-23T03:44:44.392Z,65.43
2017-10-23T03:45:24.842Z,65.33
2017-10-23T03:46:05.306Z,65.81
2017-10-23T03:46:45.764Z,65.53
2017-10-23T03:47:26.230Z,65.43
2017-10-23T03:48:06.691Z,65.43
2017-10-23T03:48:47.161Z,65.63
2017-10-23T03:49:27.617Z,65.72
2017-10-23T03:50:08.080Z,66.01
2017-10-23T03:50:48.551Z,66.11
2017-10-23T03:51:29.010Z,65.91
2017-10-23T03:52:09.464Z,65.56
2017-10-23T03:52:49.943Z,65.81
2017-10-23T03:53:30.406Z,65.91
2017-10-23T03:54:10.844Z,66.59
2017-10-23T03:54:51.296Z,66.11
2017-10-23T03:55:31.761Z,66.49
2017-10-23T03:56:12.228Z,66.3
2017-10-23T03:56:52.671Z,65.81
2017-10-23T03:57:33.130Z,65.72
2017-10-23T03:58:13.592Z,65.91
2017-10-23T03:58:54.049Z,66.11
2017-10-23T03:59:34.502Z,65.33
2017-10-23T04:00:14.992Z,65.72
2017-10-23T04:00:55.438Z,65.43
2017-10-23T04:01:35.891Z,65.14
2017-10-23T04:02:16.342Z,65.53
2017-10-23T04:02:56.789Z,65.05
2017-10-23T04:03:37.240Z,65.14
2017-10-23T04:04:17.693Z,65.14
2017-10-23T04:04:58.144Z,64.66
2017-10-23T04:05:38.618Z,64.56
2017-10-23T04:06:19.077Z,64.47
2017-10-23T04:06:59.530Z,64.76
2017-10-23T04:07:39.982Z,64.56
2017-10-23T04:08:20.437Z,64.76
2017-10-23T04:09:00.901Z,64.56
2017-10-23T04:09:41.375Z,64.76
2017-10-23T04:10:21.837Z,64.28
2017-10-23T04:11:02.297Z,64.08
2017-10-23T04:11:42.747Z,63.89
2017-10-23T04:12:23.209Z,64.37
2017-10-23T04:13:03.666Z,63.98
2017-10-23T04:13:44.117Z,64.08
2017-10-23T04:14:24.591Z,63.73
2017-10-23T04:15:05.046Z,63.6
2017-10-23T04:15:45.505Z,63.31
2017-10-23T04:16:25.959Z,63.34
2017-10-23T04:17:06.424Z,63.73
2017-10-23T04:17:46.861Z,63.73
2017-10-23T04:18:27.321Z,63.44
2017-10-23T04:19:07.754Z,63.82
2017-10-23T04:19:48.221Z,63.82
2017-10-23T04:20:28.662Z,63.63
2017-10-23T04:21:09.106Z,63.92
2017-10-23T04:21:49.592Z,63.34
2017-10-23T04:22:30.048Z,63.34
2017-10-23T04:23:10.499Z,63.34
2017-10-23T04:23:50.946Z,63.34
2017-10-23T04:24:31.435Z,63.44
2017-10-23T04:25:11.861Z,63.15
2017-10-23T04:25:52.314Z,62.96
2017-10-23T04:26:32.772Z,62.86
2017-10-23T04:27:13.222Z,63.24
2017-10-23T04:27:53.680Z,62.96
2017-10-23T04:28:34.133Z,63.44
2017-10-23T04:29:14.584Z,63.44
2017-10-23T04:29:55.041Z,62.76
2017-10-23T04:30:35.494Z,62.76
2017-10-23T04:31:15.942Z,62.96
2017-10-23T04:31:56.394Z,62.86
2017-10-23T04:32:36.853Z,62.76
2017-10-23T04:33:17.304Z,62.99
2017-10-23T04:33:57.765Z,62.96
2017-10-23T04:34:38.215Z,63.18
2017-10-23T04:35:18.664Z,63.09
2017-10-23T04:35:59.117Z,63.06
2017-10-23T04:36:39.564Z,62.38
2017-10-23T04:37:20.031Z,62.79
2017-10-23T04:38:00.473Z,62.76
2017-10-23T04:38:40.936Z,62.79
2017-10-23T04:39:21.378Z,62.79
2017-10-23T04:40:01.809Z,62.79
2017-10-23T04:40:42.267Z,62.7
2017-10-23T04:41:22.730Z,62.89
2017-10-23T04:42:03.178Z,62.79
2017-10-23T04:42:43.625Z,62.79
2017-10-23T04:43:24.113Z,62.6
2017-10-23T04:44:04.566Z,62.79
2017-10-23T04:44:45.026Z,62.79
2017-10-23T04:45:25.506Z,62.6
2017-10-23T04:46:05.955Z,62.51
2017-10-23T04:46:46.417Z,62.51
2017-10-23T04:47:26.880Z,62.79
2017-10-23T04:48:07.334Z,62.6
2017-10-23T04:48:47.787Z,62.41
2017-10-23T04:49:28.238Z,62.41
2017-10-23T04:50:08.698Z,62.6
2017-10-23T04:50:49.143Z,62.51
2017-10-23T04:51:29.604Z,62.51
2017-10-23T04:52:10.054Z,62.51
2017-10-23T04:52:50.503Z,62.41
2017-10-23T04:53:30.959Z,62.51
2017-10-23T04:54:11.414Z,62.51
2017-10-23T04:54:51.879Z,62.6
2017-10-23T04:55:32.343Z,62.51
2017-10-23T04:56:12.814Z,62.51
2017-10-23T04:56:53.283Z,62.31
2017-10-23T04:57:33.733Z,62.28
2017-10-23T04:58:14.186Z,62.22
2017-10-23T04:58:54.638Z,62.12
2017-10-23T04:59:35.092Z,62.22
2017-10-23T05:00:15.562Z,62.6
2017-10-23T05:00:56.015Z,62.6
2017-10-23T05:01:36.462Z,62.41
2017-10-23T05:02:16.916Z,62.41
2017-10-23T05:02:57.368Z,62.31
2017-10-23T05:03:37.843Z,62.22
2017-10-23T05:04:18.294Z,62.12
2017-10-23T05:04:58.757Z,62.22
2017-10-23T05:05:39.221Z,62.22
2017-10-23T05:06:19.650Z,62.22
2017-10-23T05:07:00.095Z,62.12
2017-10-23T05:07:40.535Z,61.93
2017-10-23T05:08:20.997Z,62.02
2017-10-23T05:09:01.450Z,61.93
2017-10-23T05:09:41.882Z,62.12
2017-10-23T05:10:22.341Z,62.02
2017-10-23T05:11:02.787Z,62.12
2017-10-23T05:11:43.238Z,62.12
2017-10-23T05:12:23.692Z,61.93
2017-10-23T05:13:04.151Z,61.93
2017-10-23T05:13:44.613Z,61.93
2017-10-23T05:14:25.071Z,61.83
2017-10-23T05:15:05.514Z,62.12
2017-10-23T05:15:45.975Z,62.12
2017-10-23T05:16:26.433Z,62.12
2017-10-23T05:17:06.893Z,62.02
2017-10-23T05:17:47.346Z,61.93
2017-10-23T05:18:27.789Z,62.02
2017-10-23T05:19:08.260Z,61.93
2017-10-23T05:19:48.710Z,61.74
2017-10-23T05:20:29.156Z,62.12
2017-10-23T05:21:09.638Z,62.02
2017-10-23T05:21:50.047Z,62.02
2017-10-23T05:22:30.507Z,62.02
2017-10-23T05:23:10.976Z,61.74
2017-10-23T05:23:51.426Z,61.99
2017-10-23T05:24:31.867Z,61.8
2017-10-23T05:25:12.314Z,61.71
2017-10-23T05:25:52.732Z,61.71
2017-10-23T05:26:33.175Z,61.93
2017-10-23T05:27:13.629Z,61.93
2017-10-23T05:27:54.084Z,62.12
2017-10-23T05:28:34.525Z,61.74
2017-10-23T05:29:14.984Z,61.8
2017-10-23T05:29:55.435Z,62.22
2017-10-23T05:30:35.897Z,62.12
2017-10-23T05:31:16.352Z,61.99
2017-10-23T05:31:56.805Z,61.9
2017-10-23T05:32:37.264Z,62.12
2017-10-23T05:33:17.709Z,62.02
2017-10-23T05:33:58.172Z,61.9
2017-10-23T05:34:38.622Z,62.12
2017-10-23T05:35:19.084Z,62.18
2017-10-23T05:35:59.541Z,61.9
2017-10-23T05:36:39.986Z,61.9
2017-10-23T05:37:20.441Z,61.93
2017-10-23T05:38:00.902Z,61.71
2017-10-23T05:38:41.352Z,62.09
2017-10-23T05:39:21.808Z,62.02
2017-10-23T05:40:02.260Z,61.93
2017-10-23T05:40:42.697Z,61.9
2017-10-23T05:41:23.145Z,61.99
2017-10-23T05:42:03.587Z,61.99
2017-10-23T05:42:44.051Z,61.83
2017-10-23T05:43:24.493Z,61.9
2017-10-23T05:44:04.946Z,61.9
2017-10-23T05:44:45.405Z,61.9
2017-10-23T05:45:25.859Z,61.8
2017-10-23T05:46:06.314Z,61.8
2017-10-23T05:46:46.765Z,61.9
2017-10-23T05:47:27.220Z,61.83
2017-10-23T05:48:07.683Z,62.18
2017-10-23T05:48:48.120Z,61.99
2017-10-23T05:49:28.575Z,62.09
2017-10-23T05:50:09.035Z,61.99
2017-10-23T05:50:49.495Z,61.8
2017-10-23T05:51:29.949Z,61.9
2017-10-23T05:52:10.397Z,62.02
2017-10-23T05:52:50.858Z,62.18
2017-10-23T05:53:31.309Z,62.09
2017-10-23T05:54:11.775Z,62.09
2017-10-23T05:54:52.230Z,62.09
2017-10-23T05:55:32.694Z,61.9
2017-10-23T05:56:13.132Z,62.09
2017-10-23T05:56:53.571Z,62.18
2017-10-23T05:57:34.020Z,62.09
2017-10-23T05:58:14.467Z,61.99
2017-10-23T05:58:54.917Z,61.9
2017-10-23T05:59:35.365Z,61.99
2017-10-23T06:00:15.827Z,62.18
2017-10-23T06:00:56.276Z,62.09
2017-10-23T06:01:36.739Z,61.99
2017-10-23T06:02:17.192Z,62.09
2017-10-23T06:02:57.654Z,62.28
2017-10-23T06:03:38.111Z,61.9
2017-10-23T06:04:18.566Z,62.38
2017-10-23T06:04:59.025Z,62.09
2017-10-23T06:05:39.474Z,61.99
2017-10-23T06:06:19.929Z,61.99
2017-10-23T06:07:00.398Z,61.99
2017-10-23T06:07:40.849Z,61.99
2017-10-23T06:08:21.303Z,61.99
2017-10-23T06:09:01.753Z,61.99
2017-10-23T06:09:42.212Z,62.09
2017-10-23T06:10:22.659Z,61.93
2017-10-23T06:11:03.107Z,61.99
2017-10-23T06:11:43.553Z,61.99
2017-10-23T06:12:24.011Z,61.9
2017-10-23T06:13:04.470Z,62.12
2017-10-23T06:13:44.933Z,62.09
2017-10-23T06:14:25.386Z,61.9
2017-10-23T06:15:05.847Z,62.09
2017-10-23T06:15:46.307Z,61.93
2017-10-23T06:16:26.769Z,61.99
2017-10-23T06:17:07.199Z,61.9
2017-10-23T06:17:47.655Z,61.93
2017-10-23T06:18:28.120Z,61.9
2017-10-23T06:19:08.575Z,62.09
2017-10-23T06:19:49.037Z,61.99
2017-10-23T06:20:29.489Z,61.9
2017-10-23T06:21:09.942Z,61.51
2017-10-23T06:21:50.400Z,62.12
2017-10-23T06:22:30.853Z,61.99
2017-10-23T06:23:11.304Z,62.09
2017-10-23T06:23:51.766Z,62.22
2017-10-23T06:24:32.221Z,62.09
2017-10-23T06:25:12.679Z,62.09
2017-10-23T06:25:53.132Z,62.09
2017-10-23T06:26:33.585Z,61.9
2017-10-23T06:27:14.039Z,61.9
2017-10-23T06:27:54.485Z,62.09
2017-10-23T06:28:34.941Z,61.9
2017-10-23T06:29:15.394Z,61.9
2017-10-23T06:29:55.837Z,61.9
2017-10-23T06:30:36.291Z,62.09
2017-10-23T06:31:16.723Z,61.9
2017-10-23T06:31:57.180Z,62.09
2017-10-23T06:32:37.616Z,62.09
2017-10-23T06:33:18.069Z,61.71
2017-10-23T06:33:58.526Z,62.18
2017-10-23T06:34:38.976Z,61.71
2017-10-23T06:35:19.434Z,62.09
2017-10-23T06:35:59.879Z,61.9
2017-10-23T06:36:40.334Z,62.18
2017-10-23T06:37:20.791Z,62.09
2017-10-23T06:38:01.247Z,62.18
2017-10-23T06:38:41.691Z,61.61
2017-10-23T06:39:22.139Z,61.99
2017-10-23T06:40:02.598Z,61.99
2017-10-23T06:40:43.050Z,62.18
2017-10-23T06:41:23.523Z,61.9
2017-10-23T06:42:03.954Z,61.99
2017-10-23T06:42:44.420Z,61.8
2017-10-23T06:43:24.877Z,61.9
2017-10-23T06:44:05.331Z,61.9
2017-10-23T06:44:45.787Z,62.09
2017-10-23T06:45:26.245Z,61.71
2017-10-23T06:46:06.697Z,61.71
2017-10-23T06:46:47.143Z,61.93
2017-10-23T06:47:27.588Z,62.02
2017-10-23T06:48:08.045Z,61.83
2017-10-23T06:48:48.493Z,61.93
2017-10-23T06:49:28.949Z,61.9
2017-10-23T06:50:09.403Z,61.83
2017-10-23T06:50:49.851Z,61.71
2017-10-23T06:51:30.308Z,61.93
2017-10-23T06:52:10.759Z,61.93
2017-10-23T06:52:51.215Z,61.71
2017-10-23T06:53:31.674Z,61.8
2017-10-23T06:54:12.133Z,61.9
2017-10-23T06:54:52.593Z,61.99
2017-10-23T06:55:33.097Z,61.9
2017-10-23T06:56:13.662Z,61.71
2017-10-23T06:56:54.112Z,61.9
2017-10-23T06:57:34.562Z,61.8
2017-10-23T06:58:15.023Z,61.9
2017-10-23T06:58:55.490Z,61.83
2017-10-23T06:59:35.935Z,61.9
2017-10-23T07:00:16.398Z,61.8
2017-10-23T07:00:56.848Z,61.9
2017-10-23T07:01:37.324Z,61.71
2017-10-23T07:02:17.759Z,61.9
2017-10-23T07:02:58.231Z,61.93
2017-10-23T07:03:38.658Z,61.74
2017-10-23T07:04:19.106Z,61.9
2017-10-23T07:04:59.560Z,61.9
2017-10-23T07:05:40.015Z,61.9
2017-10-23T07:06:20.486Z,61.9
2017-10-23T07:07:00.938Z,61.93
2017-10-23T07:07:41.393Z,61.9
2017-10-23T07:08:21.839Z,61.71
2017-10-23T07:09:02.286Z,61.83
2017-10-23T07:09:42.732Z,62.09
2017-10-23T07:10:23.203Z,61.71
2017-10-23T07:11:03.640Z,61.99
2017-10-23T07:11:44.091Z,62.09
2017-10-23T07:12:24.546Z,62.09
2017-10-23T07:13:05.008Z,61.99
2017-10-23T07:13:45.460Z,61.99
2017-10-23T07:14:25.913Z,62.02
2017-10-23T07:15:06.370Z,61.9
2017-10-23T07:15:46.824Z,61.9
2017-10-23T07:16:27.301Z,62.09
2017-10-23T07:17:07.742Z,61.71
2017-10-23T07:17:48.205Z,61.99
2017-10-23T07:18:28.632Z,61.74
2017-10-23T07:19:09.087Z,62.09
2017-10-23T07:19:49.552Z,61.99
2017-10-23T07:20:30.005Z,61.9
2017-10-23T07:21:10.454Z,62.12
2017-10-23T07:21:50.912Z,62.09
2017-10-23T07:22:31.355Z,61.9
2017-10-23T07:23:11.819Z,61.9
2017-10-23T07:23:52.256Z,61.9
2017-10-23T07:24:32.728Z,61.93
2017-10-23T07:25:13.177Z,61.9
2017-10-23T07:25:53.654Z,62.09
2017-10-23T07:26:34.082Z,61.9
2017-10-23T07:27:14.542Z,61.9
2017-10-23T07:27:55.000Z,61.99
2017-10-23T07:28:35.452Z,61.99
2017-10-23T07:29:15.908Z,62.12
2017-10-23T07:29:56.360Z,62.09
2017-10-23T07:30:36.821Z,61.99
2017-10-23T07:31:17.270Z,61.9
2017-10-23T07:31:57.736Z,61.71
2017-10-23T07:32:38.199Z,61.99
2017-10-23T07:33:18.662Z,61.71
2017-10-23T07:33:59.116Z,61.9
2017-10-23T07:34:39.569Z,62.09
2017-10-23T07:35:20.027Z,62.09
2017-10-23T07:36:00.477Z,61.8
2017-10-23T07:36:40.924Z,61.9
2017-10-23T07:37:21.392Z,61.9
2017-10-23T07:38:01.839Z,62.09
2017-10-23T07:38:42.297Z,61.8
2017-10-23T07:39:22.759Z,61.99
2017-10-23T07:40:03.206Z,62.09
2017-10-23T07:40:43.667Z,61.71
2017-10-23T07:41:24.109Z,61.93
2017-10-23T07:42:04.561Z,61.9
2017-10-23T07:42:45.010Z,61.9
2017-10-23T07:43:25.462Z,61.9
2017-10-23T07:44:05.922Z,61.99
2017-10-23T07:44:46.368Z,61.83
2017-10-23T07:45:26.833Z,62.12
2017-10-23T07:46:07.293Z,61.71
2017-10-23T07:46:47.740Z,61.9
2017-10-23T07:47:28.200Z,62.02
2017-10-23T07:48:08.649Z,61.9
2017-10-23T07:48:49.097Z,62.18
2017-10-23T07:49:29.641Z,62.12
2017-10-23T07:50:10.256Z,62.09
2017-10-23T07:50:51.008Z,61.9
2017-10-23T07:51:31.414Z,61.9
2017-10-23T07:52:11.866Z,61.99
2017-10-23T07:52:52.346Z,62.09
2017-10-23T07:53:32.790Z,61.99
2017-10-23T07:54:13.253Z,62.12
2017-10-23T07:54:53.701Z,61.93
2017-10-23T07:55:34.116Z,62.02
2017-10-23T07:56:14.565Z,61.99
2017-10-23T07:56:55.018Z,62.02
2017-10-23T07:57:35.473Z,62.02
2017-10-23T07:58:15.920Z,62.02
2017-10-23T07:58:56.364Z,62.02
2017-10-23T07:59:36.816Z,61.99
2017-10-23T08:00:17.269Z,62.22
2017-10-23T08:00:57.713Z,62.12
2017-10-23T08:01:38.173Z,62.51
2017-10-23T08:02:18.608Z,62.02
2017-10-23T08:02:59.053Z,62.22
2017-10-23T08:03:39.504Z,62.12
2017-10-23T08:04:19.968Z,62.12
2017-10-23T08:05:00.421Z,62.09
2017-10-23T08:05:40.881Z,62.12
2017-10-23T08:06:21.352Z,62.18
2017-10-23T08:07:01.794Z,62.22
2017-10-23T08:07:42.270Z,62.12
2017-10-23T08:08:22.672Z,62.41
2017-10-23T08:09:03.124Z,62.31
2017-10-23T08:09:43.578Z,61.83
2017-10-23T08:10:24.034Z,62.12
2017-10-23T08:11:04.468Z,62.12
2017-10-23T08:11:44.921Z,61.83
2017-10-23T08:12:25.360Z,61.93
2017-10-23T08:13:05.809Z,62.12
2017-10-23T08:13:46.269Z,61.64
2017-10-23T08:14:26.710Z,61.64
2017-10-23T08:15:07.166Z,61.64
2017-10-23T08:15:47.623Z,61.83
2017-10-23T08:16:28.075Z,61.74
2017-10-23T08:17:08.526Z,61.54
2017-10-23T08:17:48.983Z,61.54
2017-10-23T08:18:29.423Z,61.54
2017-10-23T08:19:09.875Z,61.64
2017-10-23T08:19:50.336Z,61.54
2017-10-23T08:20:30.776Z,61.64
2017-10-23T08:21:11.226Z,61.64
2017-10-23T08:21:51.684Z,61.54
2017-10-23T08:22:32.113Z,61.54
2017-10-23T08:23:12.567Z,61.64
2017-10-23T08:23:53.024Z,61.74
2017-10-23T08:24:33.469Z,61.64
2017-10-23T08:25:13.935Z,61.44
2017-10-23T08:25:54.401Z,61.54
2017-10-23T08:26:34.851Z,61.54
2017-10-23T08:27:15.299Z,61.25
2017-10-23T08:27:55.748Z,61.64
2017-10-23T08:28:36.194Z,61.64
2017-10-23T08:29:16.648Z,61.64
2017-10-23T08:29:57.095Z,61.44
2017-10-23T08:30:37.552Z,61.35
2017-10-23T08:31:18.025Z,61.25
2017-10-23T08:31:58.492Z,61.35
2017-10-23T08:32:38.949Z,61.16
2017-10-23T08:33:19.412Z,61.74
2017-10-23T08:33:59.871Z,61.44
2017-10-23T08:34:40.327Z,61.54
2017-10-23T08:35:20.795Z,61.74
2017-10-23T08:36:01.247Z,61.54
2017-10-23T08:36:41.706Z,61.44
2017-10-23T08:37:22.161Z,61.74
2017-10-23T08:38:02.614Z,61.74
2017-10-23T08:38:43.069Z,61.74
2017-10-23T08:39:23.521Z,61.83
2017-10-23T08:40:03.985Z,61.74
2017-10-23T08:40:44.438Z,61.64
2017-10-23T08:41:24.893Z,61.83
2017-10-23T08:42:05.356Z,61.83
2017-10-23T08:42:45.809Z,61.61